createdAt,value
2022-08-25T00:00:27.764Z,4.90
2022-08-25T00:03:30.021Z,4.45
2022-08-25T00:06:39.720Z,4.55
2022-08-25T00:09:42.015Z,4.30
2022-08-25T00:12:44.208Z,4.32
2022-08-25T00:15:47.176Z,4.30
2022-08-25T00:18:53.117Z,3.70
2022-08-25T00:21:56.352Z,4.35
2022-08-25T00:24:58.557Z,4.00
2022-08-25T00:28:03.057Z,3.97
2022-08-25T00:31:13.709Z,4.20
2022-08-25T00:34:19.322Z,3.90
2022-08-25T00:37:21.606Z,3.85
2022-08-25T00:40:26.289Z,4.12
2022-08-25T00:43:52.995Z,3.97
2022-08-25T00:46:57.608Z,4.35
2022-08-25T00:50:01.677Z,3.97
2022-08-25T00:53:05.161Z,5.05
2022-08-25T00:56:07.917Z,4.22
2022-08-25T00:59:10.945Z,3.40
2022-08-25T01:02:14.561Z,4.10
2022-08-25T01:05:19.373Z,3.78
2022-08-25T01:08:27.646Z,4.03
2022-08-25T01:11:31.533Z,3.92
2022-08-25T01:14:34.611Z,4.57
2022-08-25T01:17:56.448Z,4.47
2022-08-25T01:20:59.962Z,4.45
2022-08-25T01:24:02.185Z,5.07
2022-08-25T01:27:05.767Z,4.50
2022-08-25T01:30:08.388Z,4.80
2022-08-25T01:33:11.867Z,4.00
2022-08-25T01:36:18.590Z,4.22
2022-08-25T01:39:21.008Z,3.92
2022-08-25T01:43:02.498Z,4.10
2022-08-25T01:46:05.163Z,4.55
2022-08-25T01:49:07.636Z,4.40
2022-08-25T01:52:17.410Z,4.40
2022-08-25T01:55:20.109Z,4.30
2022-08-25T01:58:25.150Z,4.03
2022-08-25T02:01:27.894Z,4.82
2022-08-25T02:04:32.394Z,4.35
2022-08-25T02:07:35.892Z,5.15
2022-08-25T02:10:39.397Z,4.47
2022-08-25T02:13:42.234Z,4.43
2022-08-25T02:16:48.410Z,4.35
2022-08-25T02:19:50.755Z,4.12
2022-08-25T02:22:57.134Z,4.32
2022-08-25T02:25:59.465Z,4.20
2022-08-25T02:29:01.694Z,4.50
2022-08-25T02:32:04.323Z,5.07
2022-08-25T02:35:07.923Z,3.85
2022-08-25T02:38:10.261Z,4.15
2022-08-25T02:41:15.149Z,4.35
2022-08-25T02:44:17.421Z,4.80
2022-08-25T02:47:20.527Z,4.18
2022-08-25T02:50:29.591Z,3.80
2022-08-25T02:53:32.137Z,5.30
2022-08-25T02:56:34.737Z,4.18
2022-08-25T02:59:36.980Z,4.47
2022-08-25T03:02:41.434Z,4.12
2022-08-25T03:05:43.795Z,3.87
2022-08-25T03:08:46.150Z,3.97
2022-08-25T03:11:48.462Z,3.62
2022-08-25T03:14:50.708Z,3.75
2022-08-25T03:17:54.562Z,4.30
2022-08-25T03:20:56.757Z,4.18
2022-08-25T03:23:59.765Z,4.35
2022-08-25T03:27:02.073Z,3.95
2022-08-25T03:30:04.594Z,4.35
2022-08-25T03:33:07.088Z,3.67
2022-08-25T03:36:12.100Z,4.10
2022-08-25T03:39:14.885Z,4.00
2022-08-25T03:42:17.094Z,4.30
2022-08-25T03:45:19.489Z,4.25
2022-08-25T03:48:21.684Z,4.03
2022-08-25T03:51:35.173Z,4.05
2022-08-25T03:54:37.352Z,4.20
2022-08-25T03:57:39.816Z,3.67
2022-08-25T04:00:42.337Z,4.85
2022-08-25T04:03:44.701Z,5.55
2022-08-25T04:06:47.411Z,4.95
2022-08-25T04:09:49.675Z,4.65
2022-08-25T04:12:51.849Z,4.72
2022-08-25T04:15:54.047Z,4.53
2022-08-25T04:18:56.771Z,4.47
2022-08-25T04:21:58.960Z,4.50
2022-08-25T04:25:01.240Z,4.43
2022-08-25T04:28:03.555Z,4.80
2022-08-25T04:31:10.084Z,4.62
2022-08-25T04:34:14.807Z,5.45
2022-08-25T04:37:33.446Z,4.47
2022-08-25T04:40:35.797Z,4.43
2022-08-25T04:43:39.124Z,4.35
2022-08-25T04:46:41.408Z,4.12
2022-08-25T04:49:43.633Z,4.62
2022-08-25T04:52:46.277Z,4.93
2022-08-25T04:55:48.801Z,4.80
2022-08-25T04:58:52.200Z,3.90
2022-08-25T05:01:54.542Z,4.07
2022-08-25T05:04:57.099Z,3.80
2022-08-25T05:07:59.950Z,4.20
2022-08-25T05:11:06.727Z,3.95
2022-08-25T05:14:12.143Z,4.28
2022-08-25T05:17:14.826Z,3.58
2022-08-25T05:20:17.072Z,4.75
2022-08-25T05:23:25.717Z,4.35
2022-08-25T05:26:30.850Z,3.70
2022-08-25T05:29:33.051Z,3.90
2022-08-25T05:32:35.319Z,3.87
2022-08-25T05:35:37.875Z,4.57
2022-08-25T05:38:41.873Z,4.80
2022-08-25T05:41:44.371Z,4.18
2022-08-25T05:44:46.565Z,3.65
2022-08-25T05:47:49.333Z,4.43
2022-08-25T05:50:56.662Z,5.35
2022-08-25T05:53:58.892Z,3.40
2022-08-25T05:57:01.333Z,4.22
2022-08-25T06:00:06.124Z,4.10
2022-08-25T06:03:08.582Z,3.25
2022-08-25T06:06:10.809Z,3.60
2022-08-25T06:09:13.075Z,3.83
2022-08-25T06:12:15.583Z,3.40
2022-08-25T06:15:21.084Z,3.30
2022-08-25T06:18:23.270Z,3.72
2022-08-25T06:21:25.607Z,4.62
2022-08-25T06:24:28.901Z,3.00
2022-08-25T06:27:31.205Z,3.17
2022-08-25T06:30:33.408Z,3.25
2022-08-25T06:33:36.629Z,3.33
2022-08-25T06:36:40.519Z,3.10
2022-08-25T06:39:42.822Z,3.10
2022-08-25T06:42:48.715Z,2.72
2022-08-25T06:45:50.933Z,3.50
2022-08-25T06:48:54.681Z,3.47
2022-08-25T06:51:56.978Z,3.25
2022-08-25T06:54:59.166Z,3.40
2022-08-25T06:58:03.393Z,2.55
2022-08-25T07:01:13.442Z,3.58
2022-08-25T07:04:18.275Z,2.90
2022-08-25T07:07:21.433Z,2.95
2022-08-25T07:10:23.925Z,2.78
2022-08-25T07:13:26.555Z,2.75
2022-08-25T07:16:31.588Z,2.72
2022-08-25T07:19:34.418Z,2.58
2022-08-25T07:22:37.625Z,2.75
2022-08-25T07:25:40.145Z,2.78
2022-08-25T07:28:47.282Z,2.33
2022-08-25T07:31:50.035Z,2.40
2022-08-25T07:35:13.236Z,2.62
2022-08-25T07:38:20.734Z,2.47
2022-08-25T07:41:23.312Z,2.17
2022-08-25T07:47:48.883Z,2.60
2022-08-25T07:50:53.975Z,1.90
2022-08-25T07:53:56.298Z,3.20
2022-08-25T07:56:59.046Z,2.55
2022-08-25T08:00:01.280Z,2.10
2022-08-25T08:03:10.041Z,2.35
2022-08-25T08:06:16.855Z,2.15
2022-08-25T08:09:19.135Z,1.77
2022-08-25T08:12:21.861Z,2.97
2022-08-25T08:15:25.044Z,2.40
2022-08-25T08:18:31.832Z,2.30
2022-08-25T08:21:35.921Z,2.28
2022-08-25T08:24:44.871Z,2.10
2022-08-25T08:27:57.306Z,1.95
2022-08-25T08:30:59.899Z,2.67
2022-08-25T08:34:02.125Z,1.87
2022-08-25T08:37:04.426Z,1.90
2022-08-25T08:40:08.679Z,3.10
2022-08-25T08:43:18.448Z,2.10
2022-08-25T08:46:22.487Z,2.70
2022-08-25T08:49:43.685Z,2.20
2022-08-25T08:52:54.974Z,2.10
2022-08-25T08:56:07.002Z,2.08
2022-08-25T08:59:19.173Z,2.40
2022-08-25T09:02:39.514Z,1.98
2022-08-25T09:05:56.760Z,1.77
2022-08-25T09:09:02.110Z,1.92
2022-08-25T09:12:14.645Z,2.20
2022-08-25T09:16:04.402Z,2.00
2022-08-25T09:19:21.236Z,2.33
2022-08-25T09:22:39.214Z,2.45
2022-08-25T09:26:09.119Z,2.75
2022-08-25T09:29:19.767Z,1.80
2022-08-25T09:35:29.127Z,2.20
2022-08-25T09:38:32.090Z,2.03
2022-08-25T09:41:47.712Z,1.92
2022-08-25T09:44:53.642Z,1.80
2022-08-25T09:47:55.887Z,2.30
2022-08-25T09:51:01.558Z,2.35
2022-08-25T09:54:25.661Z,2.08
2022-08-25T09:57:52.951Z,2.50
2022-08-25T10:01:03.932Z,2.05
2022-08-25T10:04:06.865Z,1.95
2022-08-25T10:07:27.970Z,2.60
2022-08-25T10:10:35.686Z,1.98
2022-08-25T10:13:45.290Z,1.87
2022-08-25T10:16:48.985Z,2.35
2022-08-25T10:19:52.595Z,2.45
2022-08-25T10:23:14.076Z,2.10
2022-08-25T10:26:42.205Z,2.55
2022-08-25T10:30:08.842Z,2.10
2022-08-25T10:33:20.281Z,3.45
2022-08-25T10:36:31.607Z,1.92
2022-08-25T10:39:42.919Z,2.35
2022-08-25T10:43:23.892Z,1.95
2022-08-25T10:46:52.498Z,1.70
2022-08-25T10:50:09.811Z,1.80
2022-08-25T10:53:23.618Z,2.22
2022-08-25T10:57:12.272Z,2.42
2022-08-25T11:00:18.949Z,2.27
2022-08-25T11:03:26.710Z,1.95
2022-08-25T11:06:43.576Z,2.30
2022-08-25T11:09:49.302Z,2.28
2022-08-25T11:13:01.183Z,2.25
2022-08-25T11:16:19.409Z,2.17
2022-08-25T11:19:43.929Z,2.17
2022-08-25T11:22:50.700Z,1.65
2022-08-25T11:25:57.302Z,1.77
2022-08-25T11:29:16.485Z,2.00
2022-08-25T11:32:20.963Z,1.70
2022-08-25T11:35:30.435Z,2.25
2022-08-25T11:38:48.021Z,2.22
2022-08-25T11:42:22.816Z,2.75
2022-08-25T11:45:34.037Z,2.30
2022-08-25T11:48:44.418Z,2.03
2022-08-25T11:51:48.712Z,1.85
2022-08-25T11:54:50.970Z,1.98
2022-08-25T11:58:23.383Z,2.70
2022-08-25T12:01:40.463Z,2.30
2022-08-25T12:04:45.046Z,1.50
2022-08-25T12:07:52.036Z,2.40
2022-08-25T12:11:11.141Z,1.92
2022-08-25T12:14:16.777Z,2.08
2022-08-25T12:17:21.356Z,1.98
2022-08-25T12:20:58.577Z,1.52
2022-08-25T12:24:08.604Z,1.60
2022-08-25T12:27:33.799Z,2.00
2022-08-25T12:30:51.241Z,2.42
2022-08-25T12:34:10.780Z,1.65
2022-08-25T12:37:19.893Z,1.98
2022-08-25T12:40:39.309Z,1.80
2022-08-25T12:43:49.411Z,2.30
2022-08-25T12:47:06.568Z,2.30
2022-08-25T12:50:47.759Z,2.03
2022-08-25T12:53:53.401Z,2.10
2022-08-25T12:56:59.820Z,2.00
2022-08-25T13:04:06.867Z,2.62
2022-08-25T13:07:17.316Z,2.00
2022-08-25T13:10:51.045Z,2.00
2022-08-25T13:13:56.247Z,1.90
2022-08-25T13:16:59.836Z,2.62
2022-08-25T13:20:26.436Z,3.03
2022-08-25T13:23:29.633Z,1.67
2022-08-25T13:26:35.209Z,1.90
2022-08-25T13:29:54.341Z,1.87
2022-08-25T13:32:57.625Z,2.20
2022-08-25T13:36:19.161Z,2.03
2022-08-25T13:39:38.916Z,2.00
2022-08-25T13:42:56.000Z,1.52
2022-08-25T13:45:58.576Z,2.60
2022-08-25T13:49:08.901Z,1.62
2022-08-25T13:52:33.506Z,2.37
2022-08-25T13:55:51.806Z,1.92
2022-08-25T13:58:56.424Z,1.52
2022-08-25T14:02:00.169Z,1.87
2022-08-25T14:05:02.580Z,1.98
2022-08-25T14:08:23.610Z,2.87
2022-08-25T14:11:31.214Z,1.60
2022-08-25T14:14:35.208Z,2.47
2022-08-25T14:17:40.978Z,2.20
2022-08-25T14:20:49.394Z,2.45
2022-08-25T14:23:53.856Z,2.42
2022-08-25T14:26:56.318Z,1.50
2022-08-25T14:29:59.192Z,2.67
2022-08-25T14:33:02.635Z,2.00
2022-08-25T14:36:06.114Z,1.95
2022-08-25T14:39:09.902Z,2.60
2022-08-25T14:42:13.003Z,1.70
2022-08-25T14:45:16.816Z,2.00
2022-08-25T14:48:25.363Z,2.62
2022-08-25T14:51:29.797Z,1.48
2022-08-25T14:54:34.684Z,1.75
2022-08-25T14:57:38.086Z,1.65
2022-08-25T15:00:44.751Z,2.35
2022-08-25T15:03:48.743Z,3.42
2022-08-25T15:06:55.544Z,1.85
2022-08-25T15:09:57.745Z,2.55
2022-08-25T15:13:01.641Z,2.03
2022-08-25T15:16:05.257Z,2.33
2022-08-25T15:19:11.607Z,2.03
2022-08-25T15:22:13.797Z,1.80
2022-08-25T15:25:16.105Z,2.70
2022-08-25T15:28:21.921Z,1.75
2022-08-25T15:31:24.632Z,3.00
2022-08-25T15:34:30.252Z,1.98
2022-08-25T15:37:32.621Z,1.98
2022-08-25T15:40:35.358Z,1.98
2022-08-25T15:43:37.992Z,1.98
2022-08-25T15:46:41.458Z,2.85
2022-08-25T15:49:43.765Z,3.67
2022-08-25T15:52:47.569Z,2.30
2022-08-25T15:55:52.307Z,2.10
2022-08-25T15:58:56.332Z,2.40
2022-08-25T16:01:59.459Z,2.00
2022-08-25T16:05:01.874Z,1.98
2022-08-25T16:08:04.936Z,2.08
2022-08-25T16:11:07.935Z,1.98
2022-08-25T16:14:11.911Z,2.72
2022-08-25T16:17:16.124Z,2.00
2022-08-25T16:20:19.657Z,2.58
2022-08-25T16:23:21.915Z,2.40
2022-08-25T16:26:24.422Z,2.87
2022-08-25T16:29:27.102Z,2.28
2022-08-25T16:32:38.353Z,2.50
2022-08-25T16:35:40.772Z,2.30
2022-08-25T16:38:49.071Z,2.42
2022-08-25T16:41:52.781Z,2.22
2022-08-25T16:44:55.047Z,2.28
2022-08-25T16:47:57.273Z,2.95
2022-08-25T16:50:59.992Z,3.47
2022-08-25T16:54:22.127Z,2.92
2022-08-25T16:57:24.713Z,2.42
2022-08-25T17:00:30.261Z,2.08
2022-08-25T17:03:34.385Z,2.25
2022-08-25T17:06:39.379Z,2.15
2022-08-25T17:09:41.581Z,2.53
2022-08-25T17:12:43.821Z,3.00
2022-08-25T17:15:48.911Z,2.33
2022-08-25T17:18:55.507Z,2.00
2022-08-25T17:21:58.639Z,3.22
2022-08-25T17:25:01.390Z,2.53
2022-08-25T17:28:05.703Z,2.50
2022-08-25T17:31:09.481Z,2.67
2022-08-25T17:34:16.369Z,2.70
2022-08-25T17:37:19.003Z,2.35
2022-08-25T17:40:22.880Z,2.80
2022-08-25T17:43:31.263Z,3.37
2022-08-25T17:46:33.674Z,3.12
2022-08-25T17:49:36.359Z,2.90
2022-08-25T17:52:39.479Z,3.17
2022-08-25T17:55:43.127Z,3.20
2022-08-25T17:58:47.238Z,2.37
2022-08-25T18:01:55.309Z,2.85
2022-08-25T18:04:57.756Z,2.92
2022-08-25T18:08:00.926Z,2.78
2022-08-25T18:11:06.046Z,2.58
2022-08-25T18:14:11.504Z,3.12
2022-08-25T18:17:14.073Z,3.10
2022-08-25T18:20:24.238Z,4.37
2022-08-25T18:23:27.405Z,3.72
2022-08-25T18:26:30.439Z,3.83
2022-08-25T18:29:34.177Z,3.12
2022-08-25T18:32:36.740Z,2.92
2022-08-25T18:35:39.094Z,2.72
2022-08-25T18:39:00.868Z,2.90
2022-08-25T18:42:05.709Z,3.12
2022-08-25T18:45:09.345Z,3.97
2022-08-25T18:48:16.387Z,2.62
2022-08-25T18:51:19.547Z,3.20
2022-08-25T18:54:25.572Z,3.15
2022-08-25T18:57:29.200Z,3.15
2022-08-25T19:00:31.997Z,3.72
2022-08-25T19:03:34.697Z,3.03
2022-08-25T19:06:37.531Z,2.90
2022-08-25T19:09:39.841Z,2.60
2022-08-25T19:12:42.037Z,3.58
2022-08-25T19:15:46.569Z,4.35
2022-08-25T19:18:52.153Z,3.53
2022-08-25T19:21:54.589Z,3.30
2022-08-25T19:24:56.817Z,3.83
2022-08-25T19:27:59.479Z,3.78
2022-08-25T19:31:04.264Z,4.00
2022-08-25T19:34:07.912Z,3.58
2022-08-25T19:37:12.393Z,3.58
2022-08-25T19:40:15.472Z,4.22
2022-08-25T19:43:21.258Z,3.10
2022-08-25T19:46:35.627Z,2.87
2022-08-25T19:49:38.477Z,3.00
2022-08-25T19:52:45.237Z,2.62
2022-08-25T19:55:48.008Z,3.72
2022-08-25T19:58:51.255Z,3.03
2022-08-25T20:01:54.123Z,2.97
2022-08-25T20:04:59.572Z,2.97
2022-08-25T20:08:02.433Z,3.22
2022-08-25T20:11:04.690Z,3.25
2022-08-25T20:14:10.389Z,2.92
2022-08-25T20:17:14.846Z,2.65
2022-08-25T20:20:34.423Z,2.58
2022-08-25T20:23:56.271Z,2.90
2022-08-25T20:26:59.458Z,2.70
2022-08-25T20:30:03.255Z,3.17
2022-08-25T20:33:06.378Z,3.00
2022-08-25T20:36:14.666Z,3.30
2022-08-25T20:39:17.412Z,3.00
2022-08-25T20:42:20.665Z,3.60
2022-08-25T20:45:23.158Z,3.20
2022-08-25T20:48:26.838Z,3.20
2022-08-25T20:51:29.553Z,3.35
2022-08-25T20:54:32.675Z,3.65
2022-08-25T20:57:35.227Z,3.00
2022-08-25T21:00:37.504Z,2.75
2022-08-25T21:03:39.915Z,2.70
2022-08-25T21:06:43.534Z,2.65
2022-08-25T21:09:46.756Z,2.30
2022-08-25T21:12:53.332Z,2.95
2022-08-25T21:15:55.788Z,2.83
2022-08-25T21:18:58.670Z,2.45
2022-08-25T21:22:01.494Z,2.90
2022-08-25T21:25:04.773Z,3.00
2022-08-25T21:28:07.093Z,2.62
2022-08-25T21:31:10.306Z,2.90
2022-08-25T21:34:13.508Z,2.80
2022-08-25T21:37:15.914Z,3.05
2022-08-25T21:40:19.979Z,2.55
2022-08-25T21:43:22.230Z,2.53
2022-08-25T21:46:26.735Z,2.80
2022-08-25T21:49:29.555Z,2.85
2022-08-25T21:52:39.666Z,3.03
2022-08-25T21:55:44.510Z,3.37
2022-08-25T21:58:49.002Z,2.33
2022-08-25T22:01:55.356Z,2.97
2022-08-25T22:04:58.319Z,2.67
2022-08-25T22:08:01.383Z,3.30
2022-08-25T22:11:05.507Z,2.92
2022-08-25T22:14:09.733Z,3.10
2022-08-25T22:17:16.701Z,2.50
2022-08-25T22:20:20.048Z,2.72
2022-08-25T22:23:22.728Z,2.60
2022-08-25T22:26:32.346Z,2.83
2022-08-25T22:29:34.542Z,2.97
2022-08-25T22:32:38.092Z,2.97
2022-08-25T22:35:41.490Z,2.75
2022-08-25T22:38:44.405Z,2.70
2022-08-25T22:41:46.635Z,2.30
2022-08-25T22:44:48.910Z,2.92
2022-08-25T22:47:52.723Z,3.03
2022-08-25T22:50:55.064Z,3.20
2022-08-25T22:54:02.102Z,3.28
2022-08-25T22:57:06.987Z,2.62
2022-08-25T23:00:13.661Z,2.20
2022-08-25T23:03:16.458Z,3.40
2022-08-25T23:06:24.722Z,3.17
2022-08-25T23:09:27.381Z,2.90
2022-08-25T23:12:30.203Z,3.22
2022-08-25T23:15:32.843Z,3.45
2022-08-25T23:18:43.596Z,3.17
2022-08-25T23:22:05.053Z,3.00
2022-08-25T23:25:08.382Z,3.00
2022-08-25T23:28:10.604Z,2.87
2022-08-25T23:31:13.934Z,3.62
2022-08-25T23:34:17.357Z,3.50
2022-08-25T23:37:19.922Z,3.33
2022-08-25T23:40:22.314Z,3.10
2022-08-25T23:43:25.667Z,3.37
2022-08-25T23:46:29.632Z,3.37
2022-08-25T23:49:32.679Z,3.50
2022-08-25T23:52:36.233Z,3.10
2022-08-25T23:55:38.485Z,2.70
2022-08-25T23:58:53.594Z,3.30
